createdAt,value
2022-10-20T00:01:27.626Z,122.97
2022-10-20T00:03:56.488Z,121.97
2022-10-20T00:06:28.958Z,123.17
2022-10-20T00:08:59.716Z,122.40
2022-10-20T00:11:28.428Z,122.53
2022-10-20T00:13:57.956Z,122.50
2022-10-20T00:16:29.645Z,121.47
2022-10-20T00:18:58.792Z,122.20
2022-10-20T00:21:28.744Z,121.67
2022-10-20T00:23:57.072Z,122.07
2022-10-20T00:26:26.853Z,122.80
2022-10-20T00:28:56.093Z,122.37
2022-10-20T00:31:25.178Z,122.10
2022-10-20T00:33:52.864Z,121.80
2022-10-20T00:36:22.320Z,122.90
2022-10-20T00:38:50.685Z,122.23
2022-10-20T00:41:20.701Z,121.57
2022-10-20T00:43:51.918Z,122.63
2022-10-20T00:46:24.416Z,122.70
2022-10-20T00:48:59.544Z,122.60
2022-10-20T00:51:30.710Z,122.20
2022-10-20T00:54:11.245Z,122.60
2022-10-20T00:56:42.968Z,122.37
2022-10-20T00:59:14.948Z,122.73
2022-10-20T01:01:43.086Z,122.90
2022-10-20T01:04:11.381Z,122.00
2022-10-20T01:06:39.245Z,122.00
2022-10-20T01:09:07.277Z,122.93
2022-10-20T01:11:56.522Z,122.00
2022-10-20T01:15:03.962Z,122.70
2022-10-20T01:18:10.989Z,122.77
2022-10-20T01:21:19.369Z,121.87
2022-10-20T01:27:30.657Z,122.30
2022-10-20T01:30:16.550Z,122.67
2022-10-20T01:33:09.952Z,121.73
2022-10-20T01:36:07.974Z,121.60
2022-10-20T01:39:03.903Z,121.50
2022-10-20T01:41:54.038Z,121.70
2022-10-20T01:44:27.043Z,121.87
2022-10-20T01:46:55.462Z,122.67
2022-10-20T01:49:24.894Z,122.10
2022-10-20T01:51:53.139Z,121.50
2022-10-20T01:54:28.886Z,122.10
2022-10-20T01:57:11.071Z,121.93
2022-10-20T02:00:08.650Z,121.90
2022-10-20T02:02:56.900Z,122.37
2022-10-20T02:05:55.159Z,121.83
2022-10-20T02:08:46.164Z,121.97
2022-10-20T02:11:46.614Z,122.67
2022-10-20T02:14:18.578Z,121.40
2022-10-20T02:16:54.903Z,121.50
2022-10-20T02:19:30.854Z,121.67
2022-10-20T02:21:58.562Z,122.00
2022-10-20T02:24:30.620Z,121.63
2022-10-20T02:27:02.843Z,121.73
2022-10-20T02:29:36.620Z,122.70
2022-10-20T02:32:04.229Z,121.47
2022-10-20T02:34:31.612Z,121.50
2022-10-20T02:36:59.723Z,121.17
2022-10-20T02:39:27.586Z,121.40
2022-10-20T02:41:55.024Z,121.80
2022-10-20T02:44:22.902Z,121.57
2022-10-20T02:46:50.313Z,121.50
2022-10-20T02:49:17.815Z,121.97
2022-10-20T02:51:45.239Z,121.87
2022-10-20T02:54:12.664Z,119.17
2022-10-20T02:56:40.095Z,122.00
2022-10-20T02:59:07.068Z,121.70
2022-10-20T03:01:34.067Z,121.17
2022-10-20T03:04:01.051Z,121.70
2022-10-20T03:06:28.535Z,121.53
2022-10-20T03:08:56.257Z,121.80
2022-10-20T03:11:23.558Z,122.00
2022-10-20T03:13:50.487Z,121.83
2022-10-20T03:16:17.959Z,119.57
2022-10-20T03:18:45.320Z,121.20
2022-10-20T03:21:12.712Z,120.00
2022-10-20T03:23:39.711Z,121.77
2022-10-20T03:26:11.219Z,121.90
2022-10-20T03:28:39.954Z,120.53
2022-10-20T03:31:08.681Z,120.60
2022-10-20T03:33:36.205Z,121.50
2022-10-20T03:36:04.074Z,121.10
2022-10-20T03:38:31.660Z,121.60
2022-10-20T03:40:59.090Z,120.90
2022-10-20T03:43:26.516Z,121.00
2022-10-20T03:46:07.456Z,121.40
2022-10-20T03:48:35.504Z,120.47
2022-10-20T03:51:03.588Z,121.67
2022-10-20T03:53:31.308Z,121.10
2022-10-20T03:55:58.597Z,121.97
2022-10-20T03:58:26.148Z,120.10
2022-10-20T04:00:54.109Z,121.37
2022-10-20T04:03:21.493Z,121.20
2022-10-20T04:05:48.865Z,118.00
2022-10-20T04:08:16.299Z,121.37
2022-10-20T04:10:43.720Z,121.47
2022-10-20T04:13:10.679Z,121.70
2022-10-20T04:15:38.098Z,120.27
2022-10-20T04:18:05.143Z,121.90
2022-10-20T04:20:32.129Z,121.27
2022-10-20T04:22:59.541Z,120.80
2022-10-20T04:25:26.477Z,121.37
2022-10-20T04:27:53.961Z,121.33
2022-10-20T04:30:21.381Z,121.33
2022-10-20T04:32:48.761Z,121.00
2022-10-20T04:35:16.187Z,121.33
2022-10-20T04:37:43.753Z,121.10
2022-10-20T04:40:11.398Z,121.90
2022-10-20T04:42:38.832Z,121.37
2022-10-20T04:45:06.674Z,121.60
2022-10-20T04:47:35.023Z,120.40
2022-10-20T04:50:03.106Z,121.17
2022-10-20T04:52:30.534Z,121.50
2022-10-20T04:54:57.958Z,121.40
2022-10-20T04:57:25.364Z,121.47
2022-10-20T04:59:52.796Z,121.40
2022-10-20T05:02:20.258Z,121.40
2022-10-20T05:04:47.706Z,121.30
2022-10-20T05:07:15.110Z,121.00
2022-10-20T05:09:42.531Z,122.00
2022-10-20T05:12:09.507Z,120.30
2022-10-20T05:14:36.940Z,121.10
2022-10-20T05:17:06.517Z,120.77
2022-10-20T05:19:36.699Z,121.07
2022-10-20T05:22:04.092Z,120.10
2022-10-20T05:24:31.511Z,120.77
2022-10-20T05:26:58.903Z,120.70
2022-10-20T05:29:26.301Z,120.57
2022-10-20T05:31:53.667Z,121.57
2022-10-20T05:34:21.178Z,120.57
2022-10-20T05:36:48.535Z,120.80
2022-10-20T05:39:15.948Z,120.93
2022-10-20T05:41:43.343Z,121.60
2022-10-20T05:44:13.280Z,121.47
2022-10-20T05:46:42.357Z,121.57
2022-10-20T05:49:15.646Z,121.17
2022-10-20T05:51:45.154Z,120.07
2022-10-20T05:54:13.786Z,120.93
2022-10-20T05:56:41.499Z,120.77
2022-10-20T05:59:09.900Z,120.80
2022-10-20T06:01:47.566Z,120.27
2022-10-20T06:04:18.467Z,121.00
2022-10-20T06:06:45.943Z,120.90
2022-10-20T06:09:13.340Z,120.67
2022-10-20T06:11:40.964Z,120.70
2022-10-20T06:14:09.584Z,120.70
2022-10-20T06:16:37.297Z,121.30
2022-10-20T06:19:05.173Z,120.63
2022-10-20T06:21:34.502Z,121.30
2022-10-20T06:24:04.634Z,121.03
2022-10-20T06:26:36.203Z,120.97
2022-10-20T06:29:09.580Z,121.10
2022-10-20T06:31:40.583Z,121.10
2022-10-20T06:34:12.584Z,120.80
2022-10-20T06:36:42.003Z,119.70
2022-10-20T06:39:15.141Z,120.53
2022-10-20T06:41:42.636Z,121.30
2022-10-20T06:44:22.005Z,121.27
2022-10-20T06:46:52.243Z,120.73
2022-10-20T06:49:20.412Z,120.80
2022-10-20T06:51:47.840Z,120.37
2022-10-20T06:54:15.253Z,120.90
2022-10-20T06:56:42.638Z,120.30
2022-10-20T06:59:10.036Z,120.27
2022-10-20T07:01:39.595Z,119.87
2022-10-20T07:04:11.475Z,120.57
2022-10-20T07:06:42.196Z,120.77
2022-10-20T07:09:15.445Z,121.10
2022-10-20T07:11:43.588Z,120.00
2022-10-20T07:14:13.614Z,120.20
2022-10-20T07:16:41.193Z,120.40
2022-10-20T07:19:08.605Z,119.77
2022-10-20T07:21:38.412Z,120.87
2022-10-20T07:24:07.874Z,119.80
2022-10-20T07:26:38.583Z,120.17
2022-10-20T07:29:06.265Z,120.47
2022-10-20T07:31:38.231Z,118.97
2022-10-20T07:34:24.020Z,118.80
2022-10-20T07:36:53.213Z,118.90
2022-10-20T07:39:20.777Z,117.33
2022-10-20T07:41:48.657Z,118.67
2022-10-20T07:44:16.752Z,119.63
2022-10-20T07:46:44.974Z,118.50
2022-10-20T07:52:00.494Z,119.27
2022-10-20T07:54:27.905Z,121.10
2022-10-20T07:56:55.554Z,119.73
2022-10-20T07:59:24.264Z,120.30
2022-10-20T08:03:49.598Z,120.20
2022-10-20T08:06:17.427Z,120.37
2022-10-20T08:08:44.989Z,119.77
2022-10-20T08:11:13.035Z,119.27
2022-10-20T08:13:41.051Z,120.97
2022-10-20T08:16:13.337Z,119.87
2022-10-20T08:18:46.823Z,119.80
2022-10-20T08:21:17.342Z,120.80
2022-10-20T08:23:47.490Z,120.37
2022-10-20T08:26:26.105Z,121.00
2022-10-20T08:28:55.222Z,120.00
2022-10-20T08:31:23.117Z,120.00
2022-10-20T08:33:52.829Z,120.50
2022-10-20T08:36:21.509Z,119.70
2022-10-20T08:38:49.658Z,120.90
2022-10-20T08:41:34.530Z,120.70
2022-10-20T08:44:04.683Z,120.50
2022-10-20T08:46:37.693Z,118.67
2022-10-20T08:49:13.911Z,120.40
2022-10-20T08:51:43.211Z,119.77
2022-10-20T08:54:15.415Z,120.60
2022-10-20T08:56:44.417Z,120.30
2022-10-20T08:59:30.091Z,119.13
2022-10-20T09:01:58.167Z,120.43
2022-10-20T09:04:37.905Z,119.70
2022-10-20T09:07:25.619Z,119.80
2022-10-20T09:10:15.628Z,119.90
2022-10-20T09:12:47.256Z,119.40
2022-10-20T09:15:17.908Z,119.23
2022-10-20T09:17:54.232Z,119.30
2022-10-20T09:20:32.625Z,119.73
2022-10-20T09:23:04.160Z,119.00
2022-10-20T09:25:32.608Z,119.00
2022-10-20T09:28:00.027Z,119.10
2022-10-20T09:30:30.353Z,118.70
2022-10-20T09:32:58.133Z,118.20
2022-10-20T09:35:33.996Z,118.30
2022-10-20T09:38:02.719Z,118.03
2022-10-20T09:40:31.660Z,118.20
2022-10-20T09:43:11.720Z,118.57
2022-10-20T09:46:07.884Z,117.63
2022-10-20T09:48:43.109Z,117.93
2022-10-20T09:51:18.386Z,118.00
2022-10-20T09:54:00.749Z,117.70
2022-10-20T09:56:37.900Z,117.87
2022-10-20T09:59:30.340Z,117.37
2022-10-20T10:01:58.677Z,117.90
2022-10-20T10:04:37.481Z,118.17
2022-10-20T10:07:25.858Z,117.40
2022-10-20T10:10:02.661Z,117.50
2022-10-20T10:12:37.413Z,117.77
2022-10-20T10:15:34.916Z,117.60
2022-10-20T10:18:15.310Z,117.63
2022-10-20T10:20:42.795Z,117.73
2022-10-20T10:23:25.496Z,117.37
2022-10-20T10:25:55.753Z,116.80
2022-10-20T10:28:31.135Z,117.00
2022-10-20T10:31:16.755Z,116.77
2022-10-20T10:33:44.194Z,116.70
2022-10-20T10:36:35.843Z,117.37
2022-10-20T10:39:13.415Z,117.30
2022-10-20T10:42:36.095Z,117.13
2022-10-20T10:45:39.895Z,117.87
2022-10-20T10:48:28.410Z,116.97
2022-10-20T10:51:10.280Z,117.77
2022-10-20T10:53:51.940Z,117.60
2022-10-20T10:56:47.899Z,117.80
2022-10-20T10:59:28.738Z,117.50
2022-10-20T11:02:43.603Z,116.87
2022-10-20T11:05:33.727Z,117.43
2022-10-20T11:08:14.363Z,116.80
2022-10-20T11:11:07.020Z,116.77
2022-10-20T11:14:15.086Z,116.07
2022-10-20T11:17:21.779Z,116.50
2022-10-20T11:20:31.103Z,116.90
2022-10-20T11:23:31.180Z,116.30
2022-10-20T11:26:29.838Z,116.20
2022-10-20T11:29:00.059Z,116.77
2022-10-20T11:31:35.339Z,116.63
2022-10-20T11:34:16.131Z,116.17
2022-10-20T11:36:53.182Z,116.57
2022-10-20T11:40:10.299Z,115.83
2022-10-20T11:42:57.095Z,116.80
2022-10-20T11:45:49.428Z,116.77
2022-10-20T11:48:49.391Z,116.57
2022-10-20T11:51:31.756Z,116.67
2022-10-20T11:54:42.547Z,116.40
2022-10-20T11:57:31.571Z,116.60
2022-10-20T12:03:10.759Z,115.70
2022-10-20T12:06:15.689Z,115.80
2022-10-20T12:08:51.930Z,116.20
2022-10-20T12:11:30.039Z,116.57
2022-10-20T12:14:11.148Z,116.87
2022-10-20T12:17:02.577Z,116.90
2022-10-20T12:19:35.196Z,116.87
2022-10-20T12:22:16.257Z,116.60
2022-10-20T12:25:03.622Z,117.17
2022-10-20T12:27:32.697Z,117.63
2022-10-20T12:30:18.193Z,117.57
2022-10-20T12:33:11.288Z,117.60
2022-10-20T12:36:13.489Z,117.50
2022-10-20T12:38:52.890Z,118.00
2022-10-20T12:41:32.719Z,120.50
2022-10-20T12:44:29.400Z,118.57
2022-10-20T12:47:07.991Z,117.57
2022-10-20T12:49:40.164Z,118.30
2022-10-20T12:52:19.225Z,118.57
2022-10-20T12:54:48.681Z,118.20
2022-10-20T12:57:41.696Z,118.20
2022-10-20T13:00:29.421Z,118.13
2022-10-20T13:03:00.180Z,117.90
2022-10-20T13:05:47.785Z,117.60
2022-10-20T13:08:24.561Z,117.50
2022-10-20T13:10:55.988Z,116.87
2022-10-20T13:13:23.346Z,117.47
2022-10-20T13:15:53.897Z,117.30
2022-10-20T13:18:45.646Z,117.37
2022-10-20T13:21:31.420Z,117.40
2022-10-20T13:24:04.078Z,117.63
2022-10-20T13:26:42.738Z,117.87
2022-10-20T13:29:43.080Z,118.00
2022-10-20T13:32:27.293Z,118.27
2022-10-20T13:35:19.276Z,118.37
2022-10-20T13:38:04.971Z,117.40
2022-10-20T13:41:13.200Z,117.87
2022-10-20T13:44:45.870Z,117.80
2022-10-20T13:47:41.718Z,117.90
2022-10-20T13:50:40.806Z,118.57
2022-10-20T13:53:25.776Z,118.37
2022-10-20T13:56:15.651Z,118.67
2022-10-20T13:59:09.290Z,118.67
2022-10-20T14:01:37.282Z,118.43
2022-10-20T14:04:32.318Z,118.70
2022-10-20T14:07:13.128Z,118.37
2022-10-20T14:09:45.471Z,117.87
2022-10-20T14:12:24.007Z,118.20
2022-10-20T14:14:51.790Z,118.77
2022-10-20T14:17:24.967Z,118.70
2022-10-20T14:20:08.875Z,118.97
2022-10-20T14:22:43.122Z,118.90
2022-10-20T14:25:11.834Z,118.90
2022-10-20T14:27:39.914Z,119.27
2022-10-20T14:30:15.462Z,119.00
2022-10-20T14:32:45.538Z,119.00
2022-10-20T14:35:41.355Z,118.40
2022-10-20T14:38:22.983Z,118.30
2022-10-20T14:40:58.635Z,119.37
2022-10-20T14:43:43.138Z,119.27
2022-10-20T14:46:25.958Z,118.73
2022-10-20T14:48:53.383Z,118.90
2022-10-20T14:51:44.982Z,118.40
2022-10-20T14:54:22.514Z,119.10
2022-10-20T14:56:52.997Z,118.70
2022-10-20T14:59:32.626Z,119.13
2022-10-20T15:02:09.755Z,119.33
2022-10-20T15:04:42.404Z,119.17
2022-10-20T15:07:34.250Z,119.23
2022-10-20T15:10:14.747Z,119.47
2022-10-20T15:12:50.453Z,118.90
2022-10-20T15:15:20.395Z,119.57
2022-10-20T15:18:08.199Z,119.30
2022-10-20T15:20:41.415Z,119.50
2022-10-20T15:23:15.964Z,119.53
2022-10-20T15:25:45.904Z,119.60
2022-10-20T15:28:45.553Z,118.97
2022-10-20T15:31:20.216Z,119.80
2022-10-20T15:33:48.008Z,119.30
2022-10-20T15:36:21.764Z,119.17
2022-10-20T15:38:50.552Z,119.60
2022-10-20T15:41:22.090Z,119.60
2022-10-20T15:43:49.804Z,119.70
2022-10-20T15:46:18.708Z,119.93
2022-10-20T15:48:46.787Z,120.03
2022-10-20T15:51:36.149Z,119.70
2022-10-20T15:54:04.092Z,119.67
2022-10-20T15:56:32.817Z,120.13
2022-10-20T15:59:00.278Z,119.80
2022-10-20T16:01:28.089Z,119.70
2022-10-20T16:03:55.869Z,119.90
2022-10-20T16:06:24.173Z,119.73
2022-10-20T16:08:52.065Z,119.97
2022-10-20T16:11:20.858Z,120.20
2022-10-20T16:13:49.310Z,119.60
2022-10-20T16:16:19.482Z,120.20
2022-10-20T16:18:47.126Z,120.23
2022-10-20T16:21:14.833Z,119.97
2022-10-20T16:23:44.937Z,120.27
2022-10-20T16:26:14.909Z,120.67
2022-10-20T16:28:42.148Z,120.20
2022-10-20T16:31:15.921Z,120.00
2022-10-20T16:33:44.137Z,120.40
2022-10-20T16:36:16.177Z,120.37
2022-10-20T16:38:44.408Z,119.93
2022-10-20T16:41:15.399Z,120.47
2022-10-20T16:43:45.734Z,120.20
2022-10-20T16:46:15.043Z,120.37
2022-10-20T16:48:46.403Z,120.00
2022-10-20T16:51:15.962Z,120.37
2022-10-20T16:53:44.035Z,120.10
2022-10-20T16:56:15.398Z,120.30
2022-10-20T16:58:45.620Z,120.40
2022-10-20T17:01:15.608Z,120.23
2022-10-20T17:03:45.945Z,120.00
2022-10-20T17:06:15.978Z,120.30
2022-10-20T17:08:43.842Z,120.40
2022-10-20T17:11:18.565Z,119.63
2022-10-20T17:13:46.355Z,120.20
2022-10-20T17:16:26.162Z,119.80
2022-10-20T17:18:57.670Z,120.17
2022-10-20T17:21:26.431Z,120.17
2022-10-20T17:23:53.920Z,120.00
2022-10-20T17:26:24.984Z,120.27
2022-10-20T17:28:55.492Z,119.97
2022-10-20T17:31:23.003Z,120.40
2022-10-20T17:33:51.311Z,120.10
2022-10-20T17:36:19.612Z,120.20
2022-10-20T17:38:47.018Z,120.07
2022-10-20T17:41:16.163Z,119.57
2022-10-20T17:43:43.623Z,120.27
2022-10-20T17:46:19.307Z,120.17
2022-10-20T17:48:47.403Z,120.10
2022-10-20T17:51:21.691Z,120.27
2022-10-20T17:53:51.470Z,120.90
2022-10-20T17:56:27.645Z,120.40
2022-10-20T17:58:56.760Z,120.53
2022-10-20T18:01:39.435Z,120.57
2022-10-20T18:04:14.144Z,120.87
2022-10-20T18:06:43.424Z,120.43
2022-10-20T18:09:15.062Z,120.70
2022-10-20T18:11:48.755Z,121.13
2022-10-20T18:14:16.988Z,120.70
2022-10-20T18:16:45.109Z,121.47
2022-10-20T18:19:16.653Z,120.60
2022-10-20T18:21:44.711Z,121.10
2022-10-20T18:24:14.060Z,121.00
2022-10-20T18:26:41.772Z,119.97
2022-10-20T18:29:10.635Z,121.00
2022-10-20T18:31:41.563Z,120.37
2022-10-20T18:34:15.311Z,120.67
2022-10-20T18:36:45.227Z,120.70
2022-10-20T18:39:14.345Z,120.57
2022-10-20T18:41:43.353Z,121.30
2022-10-20T18:44:15.169Z,120.97
2022-10-20T18:46:43.834Z,121.27
2022-10-20T18:49:14.568Z,120.83
2022-10-20T18:51:42.612Z,120.90
2022-10-20T18:54:09.923Z,121.37
2022-10-20T18:56:37.861Z,120.83
2022-10-20T18:59:13.730Z,120.90
2022-10-20T19:01:42.230Z,121.20
2022-10-20T19:04:11.608Z,120.67
2022-10-20T19:06:46.351Z,120.93
2022-10-20T19:09:18.125Z,120.80
2022-10-20T19:14:20.884Z,120.20
2022-10-20T19:16:49.604Z,120.90
2022-10-20T19:19:17.240Z,120.77
2022-10-20T19:21:45.200Z,121.30
2022-10-20T19:24:23.032Z,121.10
2022-10-20T19:27:24.640Z,121.30
2022-10-20T19:29:45.353Z,121.10
2022-10-20T19:32:12.818Z,119.80
2022-10-20T19:34:41.308Z,121.20
2022-10-20T19:37:09.565Z,121.63
2022-10-20T19:39:40.937Z,120.83
2022-10-20T19:42:09.716Z,121.10
2022-10-20T19:44:37.745Z,121.40
2022-10-20T19:47:05.901Z,121.27
2022-10-20T19:49:33.465Z,120.80
2022-10-20T19:52:01.294Z,120.77
2022-10-20T19:54:29.076Z,121.07
2022-10-20T19:56:56.529Z,121.07
2022-10-20T19:59:24.709Z,121.17
2022-10-20T20:01:52.570Z,120.77
2022-10-20T20:04:19.781Z,120.50
2022-10-20T20:06:47.317Z,120.57
2022-10-20T20:09:15.709Z,121.27
2022-10-20T20:11:44.043Z,120.90
2022-10-20T20:14:15.913Z,121.00
2022-10-20T20:16:45.770Z,121.03
2022-10-20T20:19:16.373Z,121.10
2022-10-20T20:21:44.314Z,121.13
2022-10-20T20:24:13.967Z,121.10
2022-10-20T20:26:41.582Z,120.63
2022-10-20T20:29:09.752Z,120.83
2022-10-20T20:31:37.298Z,121.00
2022-10-20T20:34:04.871Z,121.10
2022-10-20T20:36:32.528Z,121.00
2022-10-20T20:39:01.103Z,119.27
2022-10-20T20:41:30.993Z,120.37
2022-10-20T20:44:04.104Z,120.20
2022-10-20T20:46:33.874Z,120.70
2022-10-20T20:49:02.317Z,120.80
2022-10-20T20:51:33.687Z,120.23
2022-10-20T20:54:02.555Z,120.70
2022-10-20T20:56:30.506Z,121.07
2022-10-20T20:58:58.602Z,120.70
2022-10-20T21:01:28.406Z,119.47
2022-10-20T21:03:59.774Z,120.47
2022-10-20T21:06:34.021Z,120.90
2022-10-20T21:09:10.773Z,120.70
2022-10-20T21:11:38.443Z,120.30
2022-10-20T21:14:06.047Z,119.73
2022-10-20T21:16:36.715Z,120.43
2022-10-20T21:19:09.714Z,120.70
2022-10-20T21:21:43.781Z,119.80
2022-10-20T21:24:12.521Z,120.70
2022-10-20T21:26:40.460Z,120.60
2022-10-20T21:29:08.031Z,119.77
2022-10-20T21:31:35.992Z,121.17
2022-10-20T21:34:05.215Z,120.60
2022-10-20T21:36:35.285Z,120.83
2022-10-20T21:39:06.037Z,120.67
2022-10-20T21:41:36.069Z,119.00
2022-10-20T21:44:06.651Z,120.73
2022-10-20T21:46:39.026Z,120.40
2022-10-20T21:49:18.816Z,120.57
2022-10-20T21:51:50.573Z,120.57
2022-10-20T21:56:55.244Z,120.30
2022-10-20T21:59:28.986Z,119.67
2022-10-20T22:02:01.666Z,120.70
2022-10-20T22:04:30.713Z,120.77
2022-10-20T22:06:59.201Z,120.20
2022-10-20T22:09:26.812Z,120.87
2022-10-20T22:11:56.537Z,120.50
2022-10-20T22:14:24.431Z,120.60
2022-10-20T22:16:52.218Z,120.00
2022-10-20T22:19:23.460Z,119.90
2022-10-20T22:21:52.469Z,120.67
2022-10-20T22:24:21.400Z,120.40
2022-10-20T22:26:51.433Z,120.37
2022-10-20T22:29:21.000Z,120.70
2022-10-20T22:31:49.027Z,120.77
2022-10-20T22:34:16.513Z,119.90
2022-10-20T22:36:44.393Z,119.93
2022-10-20T22:41:45.198Z,120.60
2022-10-20T22:44:12.621Z,120.77
2022-10-20T22:46:40.069Z,120.27
2022-10-20T22:49:07.483Z,120.20
2022-10-20T22:51:34.917Z,120.77
2022-10-20T22:54:01.882Z,120.87
2022-10-20T22:56:29.297Z,120.60
2022-10-20T22:58:56.249Z,120.13
2022-10-20T23:01:24.681Z,120.47
2022-10-20T23:03:52.445Z,120.03
2022-10-20T23:06:24.319Z,120.63
2022-10-20T23:08:55.875Z,120.10
2022-10-20T23:11:24.019Z,120.10
2022-10-20T23:13:51.930Z,120.70
2022-10-20T23:16:19.689Z,120.57
2022-10-20T23:18:47.913Z,120.40
2022-10-20T23:21:15.348Z,120.27
2022-10-20T23:23:43.413Z,120.57
2022-10-20T23:26:12.676Z,119.80
2022-10-20T23:28:40.277Z,120.67
2022-10-20T23:31:17.667Z,120.77
2022-10-20T23:33:47.427Z,120.30
2022-10-20T23:36:16.742Z,120.07
2022-10-20T23:38:46.102Z,120.67
2022-10-20T23:41:14.262Z,120.00
2022-10-20T23:43:41.275Z,120.00
2022-10-20T23:46:09.503Z,120.40
2022-10-20T23:48:36.894Z,120.40
2022-10-20T23:51:05.658Z,120.30
2022-10-20T23:53:34.007Z,120.60
2022-10-20T23:56:01.464Z,120.60
2022-10-20T23:58:28.835Z,120.90
